createdAt,value
2017-07-15T00:01:29.828Z,11.00
2017-07-15T00:03:57.397Z,10.90
2017-07-15T00:06:25.007Z,10.90
2017-07-15T00:08:54.097Z,10.80
2017-07-15T00:11:22.471Z,10.80
2017-07-15T00:13:50.813Z,10.80
2017-07-15T00:16:18.372Z,10.80
2017-07-15T00:18:45.961Z,11.00
2017-07-15T00:21:13.537Z,11.10
2017-07-15T00:23:42.171Z,11.30
2017-07-15T00:26:09.751Z,11.30
2017-07-15T00:28:37.340Z,11.50
2017-07-15T00:31:05.698Z,11.80
2017-07-15T00:33:33.271Z,11.80
2017-07-15T00:36:00.840Z,12.00
2017-07-15T00:38:29.283Z,12.10
2017-07-15T00:40:56.839Z,12.20
2017-07-15T00:43:24.420Z,12.20
2017-07-15T00:45:51.995Z,12.20
2017-07-15T00:48:19.580Z,12.20
2017-07-15T00:50:47.910Z,12.10
2017-07-15T00:53:15.543Z,12.10
2017-07-15T00:55:43.196Z,12.20
2017-07-15T00:58:10.777Z,12.10
2017-07-15T01:00:38.349Z,12.00
2017-07-15T01:03:05.934Z,11.90
2017-07-15T01:05:33.497Z,11.80
2017-07-15T01:08:01.091Z,11.80
2017-07-15T01:10:29.431Z,11.70
2017-07-15T01:12:57.007Z,11.60
2017-07-15T01:15:24.583Z,11.60
2017-07-15T01:17:52.159Z,11.50
2017-07-15T01:20:20.563Z,11.40
2017-07-15T01:22:48.142Z,11.30
2017-07-15T01:25:15.731Z,11.30
2017-07-15T01:27:43.314Z,11.50
2017-07-15T01:30:11.638Z,11.30
2017-07-15T01:32:39.236Z,11.30
2017-07-15T01:35:06.803Z,11.20
2017-07-15T01:37:34.490Z,11.00
2017-07-15T01:40:02.854Z,10.70
2017-07-15T01:42:30.403Z,10.70
2017-07-15T01:44:57.971Z,10.60
2017-07-15T01:47:25.619Z,10.50
2017-07-15T01:49:53.207Z,10.50
2017-07-15T01:52:21.544Z,10.70
2017-07-15T01:54:49.200Z,10.70
2017-07-15T01:57:16.787Z,10.60
2017-07-15T01:59:44.359Z,10.60
2017-07-15T02:02:11.940Z,10.50
2017-07-15T02:04:40.683Z,10.50
2017-07-15T02:07:08.262Z,10.40
2017-07-15T02:09:35.824Z,10.50
2017-07-15T02:12:03.396Z,10.50
2017-07-15T02:14:30.975Z,10.40
2017-07-15T02:16:59.342Z,10.40
2017-07-15T02:19:26.936Z,10.40
2017-07-15T02:21:54.530Z,10.60
2017-07-15T02:24:22.111Z,10.40
2017-07-15T02:26:49.679Z,10.40
2017-07-15T02:29:17.267Z,10.40
2017-07-15T02:31:45.595Z,10.40
2017-07-15T02:34:13.328Z,10.40
2017-07-15T02:36:40.907Z,10.40
2017-07-15T02:39:08.474Z,10.50
2017-07-15T02:41:36.027Z,10.40
2017-07-15T02:44:03.622Z,10.30
2017-07-15T02:46:31.223Z,10.20
2017-07-15T02:48:58.815Z,10.20
2017-07-15T02:51:26.395Z,10.20
2017-07-15T02:53:53.967Z,10.10
2017-07-15T02:56:21.543Z,10.10
2017-07-15T02:58:49.121Z,10.10
2017-07-15T03:01:17.451Z,10.20
2017-07-15T03:03:45.011Z,10.20
2017-07-15T03:06:12.607Z,10.20
2017-07-15T03:08:40.165Z,10.30
2017-07-15T03:11:07.739Z,10.40
2017-07-15T03:13:35.307Z,10.50
2017-07-15T03:16:02.862Z,10.50
2017-07-15T03:18:31.215Z,10.50
2017-07-15T03:20:58.774Z,10.50
2017-07-15T03:23:26.359Z,10.70
2017-07-15T03:25:54.699Z,10.90
2017-07-15T03:28:22.284Z,10.90
2017-07-15T03:30:49.835Z,11.00
2017-07-15T03:33:17.455Z,11.00
2017-07-15T03:35:45.022Z,11.10
2017-07-15T03:38:12.626Z,11.10
2017-07-15T03:40:40.203Z,11.10
2017-07-15T03:43:08.540Z,11.10
2017-07-15T03:45:36.175Z,11.10
2017-07-15T03:48:03.757Z,11.10
2017-07-15T03:50:31.373Z,11.20
2017-07-15T03:52:59.730Z,11.50
2017-07-15T03:55:27.333Z,11.50
2017-07-15T03:57:54.906Z,11.60
2017-07-15T04:00:22.479Z,11.90
2017-07-15T04:02:50.091Z,12.00
2017-07-15T04:05:18.443Z,12.20
2017-07-15T04:07:46.025Z,12.20
2017-07-15T04:10:13.575Z,12.30
2017-07-15T04:12:41.159Z,12.40
2017-07-15T04:15:09.502Z,12.50
2017-07-15T04:17:37.062Z,12.50
2017-07-15T04:20:04.635Z,12.60
2017-07-15T04:22:32.209Z,12.70
2017-07-15T04:25:00.548Z,12.80
2017-07-15T04:27:28.118Z,12.80
2017-07-15T04:29:55.695Z,12.90
2017-07-15T04:32:23.246Z,13.00
2017-07-15T04:34:50.831Z,13.10
2017-07-15T04:37:18.416Z,13.10
2017-07-15T04:39:46.806Z,13.30
2017-07-15T04:42:14.365Z,13.20
2017-07-15T04:44:41.934Z,13.30
2017-07-15T04:47:09.525Z,13.50
2017-07-15T04:49:37.078Z,13.60
2017-07-15T04:52:04.639Z,13.60
2017-07-15T04:54:32.973Z,13.70
2017-07-15T04:57:01.330Z,13.70
2017-07-15T04:59:28.891Z,13.70
2017-07-15T05:01:56.494Z,13.70
2017-07-15T05:04:24.067Z,13.80
2017-07-15T05:06:51.658Z,13.90
2017-07-15T05:09:19.218Z,13.90
2017-07-15T05:11:46.818Z,13.90
2017-07-15T05:14:15.148Z,14.00
2017-07-15T05:16:42.731Z,13.90
2017-07-15T05:19:10.287Z,13.90
2017-07-15T05:21:37.851Z,14.00
2017-07-15T05:24:05.431Z,14.00
2017-07-15T05:26:33.001Z,14.00
2017-07-15T05:29:00.550Z,14.00
2017-07-15T05:31:28.087Z,14.00
2017-07-15T05:33:55.649Z,14.00
2017-07-15T05:36:23.226Z,14.10
2017-07-15T05:38:50.796Z,14.20
2017-07-15T05:41:18.438Z,14.30
2017-07-15T05:43:46.026Z,14.60
2017-07-15T05:46:13.688Z,14.80
2017-07-15T05:48:41.266Z,14.90
2017-07-15T05:51:09.606Z,14.90
2017-07-15T05:53:37.183Z,14.80
2017-07-15T05:56:04.739Z,14.80
2017-07-15T05:58:32.388Z,14.60
2017-07-15T06:00:59.984Z,14.60
2017-07-15T06:03:28.323Z,14.40
2017-07-15T06:05:55.961Z,14.40
2017-07-15T06:08:23.711Z,14.30
2017-07-15T06:10:52.039Z,14.40
2017-07-15T06:13:19.633Z,14.40
2017-07-15T06:15:47.201Z,14.60
2017-07-15T06:18:15.594Z,16.20
2017-07-15T06:20:43.954Z,17.00
2017-07-15T06:23:11.674Z,16.90
2017-07-15T06:25:39.281Z,17.70
2017-07-15T06:28:06.858Z,18.70
2017-07-15T06:30:35.305Z,18.10
2017-07-15T06:33:02.891Z,18.10
2017-07-15T06:35:30.483Z,17.30
2017-07-15T06:37:58.073Z,17.10
2017-07-15T06:40:25.653Z,17.20
2017-07-15T06:42:53.225Z,17.40
2017-07-15T06:45:20.892Z,17.90
2017-07-15T06:47:48.547Z,18.90
2017-07-15T06:50:16.136Z,19.10
2017-07-15T06:52:44.470Z,18.80
2017-07-15T06:55:13.411Z,18.70
2017-07-15T06:57:41.017Z,18.50
2017-07-15T07:00:08.611Z,18.10
2017-07-15T07:02:36.175Z,17.90
2017-07-15T07:05:03.731Z,17.40
2017-07-15T07:07:31.298Z,17.00
2017-07-15T07:09:58.883Z,16.90
2017-07-15T07:12:27.226Z,17.50
2017-07-15T07:14:54.790Z,17.50
2017-07-15T07:17:22.383Z,17.80
2017-07-15T07:19:50.830Z,18.00
2017-07-15T07:22:18.377Z,18.00
2017-07-15T07:24:46.010Z,17.90
2017-07-15T07:27:14.359Z,18.80
2017-07-15T07:29:42.496Z,18.80
2017-07-15T07:32:10.056Z,19.10
2017-07-15T07:34:37.719Z,19.60
2017-07-15T07:37:05.338Z,20.00
2017-07-15T07:39:33.686Z,19.80
2017-07-15T07:42:01.259Z,19.70
2017-07-15T07:44:28.818Z,20.10
2017-07-15T07:46:56.579Z,20.80
2017-07-15T07:49:24.148Z,22.10
2017-07-15T07:51:51.803Z,21.00
2017-07-15T07:54:19.375Z,20.50
2017-07-15T07:56:46.936Z,20.10
2017-07-15T07:59:14.614Z,19.70
2017-07-15T08:01:42.951Z,20.50
2017-07-15T08:04:10.538Z,20.50
2017-07-15T08:06:38.103Z,21.50
2017-07-15T08:09:05.656Z,22.00
2017-07-15T08:11:33.254Z,22.90
2017-07-15T08:14:00.866Z,24.10
2017-07-15T08:16:28.465Z,25.20
2017-07-15T08:18:56.040Z,24.70
2017-07-15T08:21:24.385Z,26.50
2017-07-15T08:23:51.956Z,26.40
2017-07-15T08:26:19.532Z,27.00
2017-07-15T08:28:47.083Z,27.90
2017-07-15T08:31:14.667Z,28.00
2017-07-15T08:33:43.001Z,26.40
2017-07-15T08:36:10.579Z,26.40
2017-07-15T08:38:38.722Z,24.90
2017-07-15T08:41:06.334Z,25.30
2017-07-15T08:43:33.948Z,25.00
2017-07-15T08:46:01.504Z,23.20
2017-07-15T08:48:29.081Z,23.50
2017-07-15T08:50:56.668Z,24.50
2017-07-15T08:53:24.359Z,25.80
2017-07-15T08:55:52.861Z,27.20
2017-07-15T08:58:20.423Z,27.20
2017-07-15T09:00:48.023Z,27.70
2017-07-15T09:03:15.681Z,25.30
2017-07-15T09:05:43.254Z,24.10
2017-07-15T09:08:10.911Z,24.40
2017-07-15T09:10:38.482Z,24.90
2017-07-15T09:13:06.063Z,25.50
2017-07-15T09:15:33.778Z,25.90
2017-07-15T09:18:01.375Z,25.80
2017-07-15T09:20:29.720Z,24.70
2017-07-15T09:22:57.377Z,24.60
2017-07-15T09:25:24.937Z,23.50
2017-07-15T09:27:52.583Z,22.60
2017-07-15T09:30:20.137Z,22.60
2017-07-15T09:32:47.718Z,23.70
2017-07-15T09:35:15.314Z,25.10
2017-07-15T09:37:42.882Z,26.10
2017-07-15T09:40:10.955Z,26.50
2017-07-15T09:42:38.541Z,26.40
2017-07-15T09:45:06.868Z,25.10
2017-07-15T09:47:34.447Z,25.00
2017-07-15T09:50:02.012Z,23.70
2017-07-15T09:52:29.572Z,23.70
2017-07-15T09:54:57.186Z,24.80
2017-07-15T09:57:24.796Z,25.70
2017-07-15T09:59:52.355Z,26.60
2017-07-15T10:02:19.931Z,25.30
2017-07-15T10:04:47.523Z,24.70
2017-07-15T10:07:15.925Z,24.70
2017-07-15T10:09:43.499Z,24.70
2017-07-15T10:12:11.113Z,25.20
2017-07-15T10:14:38.665Z,25.50
2017-07-15T10:17:06.223Z,26.90
2017-07-15T10:19:33.804Z,25.90
2017-07-15T10:22:01.387Z,25.40
2017-07-15T10:24:28.999Z,26.30
2017-07-15T10:26:56.561Z,27.90
2017-07-15T10:29:24.162Z,28.00
2017-07-15T10:31:51.757Z,27.00
2017-07-15T10:34:19.323Z,26.70
2017-07-15T10:36:47.730Z,27.10
2017-07-15T10:39:15.310Z,27.10
2017-07-15T10:41:43.225Z,28.20
2017-07-15T10:44:10.829Z,27.30
2017-07-15T10:46:38.543Z,27.20
2017-07-15T10:49:06.178Z,28.00
2017-07-15T10:51:33.698Z,27.00
2017-07-15T10:54:01.285Z,26.70
2017-07-15T10:56:28.839Z,26.20
2017-07-15T10:58:56.410Z,25.70
2017-07-15T11:01:24.031Z,27.00
2017-07-15T11:03:51.608Z,26.20
2017-07-15T11:06:19.201Z,25.60
2017-07-15T11:08:46.776Z,24.80
2017-07-15T11:11:15.144Z,24.70
2017-07-15T11:13:43.629Z,26.60
2017-07-15T11:16:11.199Z,26.60
2017-07-15T11:18:39.534Z,28.30
2017-07-15T11:21:07.139Z,28.30
2017-07-15T11:23:34.727Z,27.70
2017-07-15T11:26:03.058Z,27.00
2017-07-15T11:28:30.610Z,27.00
2017-07-15T11:30:58.196Z,26.20
2017-07-15T11:33:25.780Z,25.10
2017-07-15T11:35:53.351Z,24.40
2017-07-15T11:38:21.704Z,23.40
2017-07-15T11:40:49.389Z,23.40
2017-07-15T11:43:17.772Z,22.30
2017-07-15T11:45:46.114Z,22.40
2017-07-15T11:48:13.681Z,22.40
2017-07-15T11:50:41.295Z,22.80
2017-07-15T11:53:09.644Z,27.00
2017-07-15T11:55:37.230Z,27.00
2017-07-15T11:58:05.580Z,27.00
2017-07-15T12:00:33.200Z,26.90
2017-07-15T12:03:00.759Z,25.50
2017-07-15T12:05:28.347Z,24.80
2017-07-15T12:07:55.905Z,24.00
2017-07-15T12:10:23.556Z,23.50
2017-07-15T12:12:51.649Z,23.40
2017-07-15T12:15:19.245Z,23.30
2017-07-15T12:17:46.823Z,23.30
2017-07-15T12:20:15.152Z,23.20
2017-07-15T12:22:42.768Z,23.10
2017-07-15T12:25:11.133Z,23.20
2017-07-15T12:27:38.724Z,23.20
2017-07-15T12:30:07.040Z,23.90
2017-07-15T12:32:34.605Z,23.90
2017-07-15T12:35:02.167Z,24.60
2017-07-15T12:37:29.846Z,26.20
2017-07-15T12:39:58.570Z,27.70
2017-07-15T12:42:26.920Z,27.60
2017-07-15T12:44:54.499Z,27.60
2017-07-15T12:47:22.143Z,27.20
2017-07-15T12:49:49.711Z,27.40
2017-07-15T12:52:17.291Z,27.50
2017-07-15T12:54:44.866Z,27.10
2017-07-15T12:57:13.203Z,29.30
2017-07-15T12:59:40.773Z,29.30
2017-07-15T13:02:08.355Z,28.30
2017-07-15T13:04:35.948Z,28.60
2017-07-15T13:07:03.515Z,28.10
2017-07-15T13:09:31.083Z,27.70
2017-07-15T13:11:58.659Z,27.30
2017-07-15T13:14:26.229Z,27.10
2017-07-15T13:16:53.832Z,26.60
2017-07-15T13:19:21.387Z,26.00
2017-07-15T13:21:48.949Z,26.70
2017-07-15T13:24:16.507Z,27.60
2017-07-15T13:26:44.082Z,27.40
2017-07-15T13:29:11.763Z,27.10
2017-07-15T13:31:40.091Z,26.10
2017-07-15T13:34:07.672Z,26.10
2017-07-15T13:36:35.243Z,25.80
2017-07-15T13:39:02.810Z,25.60
2017-07-15T13:41:30.355Z,26.20
2017-07-15T13:43:58.168Z,26.40
2017-07-15T13:46:27.074Z,26.90
2017-07-15T13:48:54.764Z,26.90
2017-07-15T13:51:22.343Z,26.50
2017-07-15T13:53:49.903Z,25.90
2017-07-15T13:56:17.498Z,26.20
2017-07-15T13:58:45.821Z,26.20
2017-07-15T14:01:13.407Z,26.20
2017-07-15T14:03:40.998Z,26.40
2017-07-15T14:06:08.569Z,26.00
2017-07-15T14:08:36.891Z,26.50
2017-07-15T14:11:04.470Z,26.50
2017-07-15T14:13:32.155Z,26.30
2017-07-15T14:15:59.738Z,26.70
2017-07-15T14:18:28.060Z,26.30
2017-07-15T14:20:55.629Z,26.30
2017-07-15T14:23:23.192Z,26.10
2017-07-15T14:25:50.762Z,26.20
2017-07-15T14:28:18.399Z,26.10
2017-07-15T14:30:45.980Z,26.70
2017-07-15T14:33:13.538Z,26.50
2017-07-15T14:35:41.145Z,26.10
2017-07-15T14:38:08.785Z,25.60
2017-07-15T14:40:36.367Z,25.00
2017-07-15T14:43:03.948Z,25.00
2017-07-15T14:45:32.298Z,25.40
2017-07-15T14:48:00.022Z,25.30
2017-07-15T14:50:27.571Z,25.80
2017-07-15T14:52:55.911Z,25.40
2017-07-15T14:55:23.499Z,25.40
2017-07-15T14:57:51.820Z,24.80
2017-07-15T15:00:19.387Z,24.80
2017-07-15T15:02:46.964Z,24.90
2017-07-15T15:05:14.679Z,25.10
2017-07-15T15:07:43.083Z,26.30
2017-07-15T15:10:10.661Z,26.30
2017-07-15T15:12:38.414Z,26.30
2017-07-15T15:15:05.981Z,26.70
2017-07-15T15:17:33.749Z,26.20
2017-07-15T15:20:01.342Z,25.60
2017-07-15T15:22:28.905Z,25.10
2017-07-15T15:24:56.542Z,24.90
2017-07-15T15:27:24.102Z,25.20
2017-07-15T15:29:51.673Z,25.10
2017-07-15T15:32:19.392Z,25.30
2017-07-15T15:34:47.716Z,26.10
2017-07-15T15:37:15.376Z,26.10
2017-07-15T15:39:42.945Z,25.80
2017-07-15T15:42:10.517Z,26.00
2017-07-15T15:44:38.858Z,25.50
2017-07-15T15:47:06.441Z,25.50
2017-07-15T15:49:34.706Z,24.40
2017-07-15T15:52:02.303Z,24.20
2017-07-15T15:54:30.751Z,23.60
2017-07-15T15:56:58.319Z,23.60
2017-07-15T15:59:25.942Z,23.30
2017-07-15T16:01:53.516Z,23.40
2017-07-15T16:04:21.132Z,23.70
2017-07-15T16:06:49.529Z,24.10
2017-07-15T16:09:17.980Z,24.00
2017-07-15T16:11:46.533Z,24.00
2017-07-15T16:14:14.096Z,24.00
2017-07-15T16:16:41.660Z,24.20
2017-07-15T16:19:09.251Z,24.00
2017-07-15T16:21:36.811Z,24.00
2017-07-15T16:24:04.391Z,23.80
2017-07-15T16:26:33.414Z,23.80
2017-07-15T16:29:01.011Z,23.80
2017-07-15T16:31:28.673Z,23.70
2017-07-15T16:33:56.243Z,23.50
2017-07-15T16:36:23.825Z,23.30
2017-07-15T16:38:51.410Z,23.40
2017-07-15T16:41:19.759Z,23.80
2017-07-15T16:43:47.335Z,23.70
2017-07-15T16:46:14.955Z,23.80
2017-07-15T16:48:42.583Z,23.80
2017-07-15T16:51:10.962Z,23.50
2017-07-15T16:53:39.343Z,23.20
2017-07-15T16:56:08.666Z,23.00
2017-07-15T16:58:36.246Z,22.90
2017-07-15T17:01:03.838Z,22.90
2017-07-15T17:03:31.409Z,22.90
2017-07-15T17:05:59.034Z,22.70
2017-07-15T17:08:26.607Z,22.70
2017-07-15T17:10:54.944Z,22.50
2017-07-15T17:13:22.619Z,22.40
2017-07-15T17:15:50.284Z,22.40
2017-07-15T17:18:17.927Z,22.30
2017-07-15T17:20:45.497Z,22.30
2017-07-15T17:23:13.093Z,22.20
2017-07-15T17:25:40.699Z,22.20
2017-07-15T17:28:08.320Z,22.10
2017-07-15T17:30:35.889Z,22.00
2017-07-15T17:33:03.453Z,21.90
2017-07-15T17:35:31.850Z,21.70
2017-07-15T17:38:00.186Z,21.70
2017-07-15T17:40:27.820Z,21.70
2017-07-15T17:42:55.437Z,21.70
2017-07-15T17:45:23.799Z,21.70
2017-07-15T17:47:51.400Z,21.60
2017-07-15T17:50:19.721Z,21.60
2017-07-15T17:52:47.381Z,21.60
2017-07-15T17:55:14.964Z,21.50
2017-07-15T17:57:42.622Z,21.50
2017-07-15T18:00:10.252Z,21.40
2017-07-15T18:02:37.827Z,21.20
2017-07-15T18:05:05.451Z,21.10
2017-07-15T18:07:33.816Z,21.00
2017-07-15T18:10:01.409Z,21.00
2017-07-15T18:12:29.767Z,20.90
2017-07-15T18:14:57.355Z,20.90
2017-07-15T18:17:24.942Z,20.90
2017-07-15T18:19:52.604Z,20.80
2017-07-15T18:22:20.286Z,20.80
2017-07-15T18:24:47.889Z,20.80
2017-07-15T18:27:15.443Z,20.70
2017-07-15T18:29:43.021Z,20.70
2017-07-15T18:32:11.483Z,20.50
2017-07-15T18:34:39.075Z,20.50
2017-07-15T18:37:07.503Z,20.40
2017-07-15T18:39:35.167Z,20.40
2017-07-15T18:42:02.782Z,20.30
2017-07-15T18:44:30.432Z,20.30
2017-07-15T18:46:58.808Z,20.20
2017-07-15T18:49:26.419Z,20.20
2017-07-15T18:51:54.188Z,20.20
2017-07-15T18:54:21.807Z,20.20
2017-07-15T18:56:49.501Z,20.20
2017-07-15T18:59:17.084Z,20.10
2017-07-15T19:01:44.699Z,20.10
2017-07-15T19:04:12.363Z,20.10
2017-07-15T19:06:40.065Z,20.00
2017-07-15T19:09:07.671Z,20.00
2017-07-15T19:11:35.320Z,20.00
2017-07-15T19:14:02.888Z,20.00
2017-07-15T19:16:30.472Z,19.90
2017-07-15T19:18:58.036Z,19.90
2017-07-15T19:21:25.611Z,19.90
2017-07-15T19:23:53.963Z,20.00
2017-07-15T19:26:21.526Z,19.90
2017-07-15T19:28:49.120Z,19.90
2017-07-15T19:31:17.727Z,19.90
2017-07-15T19:33:45.282Z,19.90
2017-07-15T19:36:12.872Z,19.90
2017-07-15T19:38:40.434Z,19.80
2017-07-15T19:41:08.058Z,19.80
2017-07-15T19:43:36.419Z,19.80
2017-07-15T19:46:03.985Z,19.80
2017-07-15T19:48:31.543Z,19.80
2017-07-15T19:50:59.276Z,19.80
2017-07-15T19:53:26.848Z,19.70
2017-07-15T19:55:55.078Z,19.70
2017-07-15T19:58:25.390Z,19.70
2017-07-15T20:00:53.163Z,19.60
2017-07-15T20:03:21.646Z,19.60
2017-07-15T20:05:49.276Z,19.50
2017-07-15T20:08:17.536Z,19.50
2017-07-15T20:10:45.457Z,19.60
2017-07-15T20:13:13.115Z,19.60
2017-07-15T20:15:40.744Z,19.60
2017-07-15T20:18:08.395Z,19.60
2017-07-15T20:20:36.033Z,19.60
2017-07-15T20:23:03.647Z,19.60
2017-07-15T20:25:31.226Z,19.50
2017-07-15T20:27:58.988Z,19.60
2017-07-15T20:30:26.684Z,19.70
2017-07-15T20:32:54.328Z,19.70
2017-07-15T20:35:21.973Z,19.70
2017-07-15T20:37:49.560Z,19.70
2017-07-15T20:40:17.302Z,19.70
2017-07-15T20:42:45.690Z,19.60
2017-07-15T20:45:13.339Z,19.60
2017-07-15T20:47:41.656Z,19.60
2017-07-15T20:50:09.275Z,19.60
2017-07-15T20:52:43.337Z,19.70
2017-07-15T20:55:11.000Z,19.60
2017-07-15T20:57:38.635Z,19.60
2017-07-15T21:00:06.314Z,19.60
2017-07-15T21:02:33.941Z,19.60
2017-07-15T21:05:01.638Z,19.50
2017-07-15T21:07:29.340Z,19.50
2017-07-15T21:09:57.021Z,19.40
2017-07-15T21:12:24.801Z,19.40
2017-07-15T21:14:52.473Z,19.30
2017-07-15T21:17:21.003Z,19.30
2017-07-15T21:19:48.792Z,19.30
2017-07-15T21:22:16.400Z,19.40
2017-07-15T21:24:44.842Z,19.40
2017-07-15T21:27:12.427Z,19.40
2017-07-15T21:29:40.831Z,19.40
2017-07-15T21:32:08.512Z,19.40
2017-07-15T21:34:36.131Z,19.40
2017-07-15T21:37:03.782Z,19.30
2017-07-15T21:39:31.500Z,19.20
2017-07-15T21:42:00.074Z,19.00
2017-07-15T21:44:27.781Z,19.00
2017-07-15T21:46:55.519Z,19.10
2017-07-15T21:49:23.437Z,19.20
2017-07-15T21:51:51.110Z,19.20
2017-07-15T21:54:18.786Z,19.20
2017-07-15T21:56:47.162Z,19.20
2017-07-15T21:59:15.519Z,19.30
2017-07-15T22:01:43.192Z,19.30
2017-07-15T22:04:10.812Z,19.30
2017-07-15T22:06:38.535Z,19.30
2017-07-15T22:09:06.095Z,19.40
2017-07-15T22:11:33.745Z,19.40
2017-07-15T22:14:01.340Z,19.40
2017-07-15T22:16:29.680Z,19.40
2017-07-15T22:18:57.243Z,19.40
2017-07-15T22:21:24.899Z,19.40
2017-07-15T22:23:54.205Z,19.50
2017-07-15T22:26:21.760Z,19.50
2017-07-15T22:28:49.338Z,19.50
2017-07-15T22:31:17.096Z,19.40
2017-07-15T22:33:44.734Z,19.40
2017-07-15T22:36:12.384Z,19.40
2017-07-15T22:38:40.056Z,19.50
2017-07-15T22:41:07.658Z,19.40
2017-07-15T22:43:36.166Z,19.40
2017-07-15T22:46:04.541Z,19.30
2017-07-15T22:48:32.484Z,19.40
2017-07-15T22:51:00.065Z,19.30
2017-07-15T22:53:27.647Z,19.30
2017-07-15T22:55:55.995Z,19.30
2017-07-15T22:58:23.592Z,19.30
2017-07-15T23:00:51.914Z,19.30
2017-07-15T23:03:19.511Z,19.20
2017-07-15T23:05:47.198Z,19.30
2017-07-15T23:08:14.887Z,19.30
2017-07-15T23:10:42.605Z,19.20
2017-07-15T23:13:10.257Z,19.20
2017-07-15T23:15:37.859Z,19.20
2017-07-15T23:18:15.359Z,19.10
2017-07-15T23:20:42.943Z,19.10
2017-07-15T23:23:10.498Z,19.00
2017-07-15T23:25:38.093Z,19.00
2017-07-15T23:28:05.659Z,19.00
2017-07-15T23:30:33.250Z,19.00
2017-07-15T23:33:01.618Z,18.90
2017-07-15T23:35:29.187Z,18.90
2017-07-15T23:37:56.781Z,18.80
2017-07-15T23:40:24.356Z,18.80
2017-07-15T23:42:51.943Z,18.80
2017-07-15T23:45:19.503Z,18.70
2017-07-15T23:47:47.068Z,18.60
2017-07-15T23:50:14.674Z,18.60
2017-07-15T23:52:43.023Z,18.60
2017-07-15T23:55:10.626Z,18.60
2017-07-15T23:57:38.174Z,18.60
